Tiempo atmosférico en la estación meteorológica de Bustillo del Páramo, León (850 m.)



Fecha
DESCASC
Temp. máxima en grados centígrados (hora)
DESCASC
Temp. mínima en grados centígrados (hora)
DESCASC
Temp. media en grados centígrados
DESCASC
Racha de viento máxima en m/sg (hora)
DESCASC
Velocidad máxima media en intervalos de 10 minutos(hora)
DESCASC
Precipitaciones diarias en mm
DESCASC
Precipitaciones de 00:00 a 06:00 en mm
DESCASC
Precipitaciones de 06:00 a 12:00 en mm
DESCASC
Precipitaciones de 12:00 a 18:00 en mm
DESCASC
Precipitaciones de 18:00 a 24:00 en mm
DESCASC
18-10-2018 20.2 (14:50) 9.8 (23:59) 15 8.89 (17:10) 4.44 (11:50) 0 0 0 0 0
17-10-2018 18 (16:20) 3.7 (08:20) 10.9 4.72 (14:50) 3.06 (14:50) 0 0 0 0 0
16-10-2018 17.2 (17:20) 5.9 (08:30) 11.6 4.72 (11:00) 3.33 (11:00) 0 0 0 0 0
15-10-2018 10.3 (17:20) 5.8 (02:00) 8.1 6.39 (12:40) 3.61 (13:20) 3.8 0.2 3.6 0 0
14-10-2018 16.4 (02:50) 6.5 (00:00) 11.4 17.5 (04:40) 10.28 (04:30) 3.8 0.2 3.6 0 0
13-10-2018 22.6 (16:40) 10.1 (00:00) 16.4 7.22 (14:30) 5 (18:10) 0 0 0 0 0
12-10-2018 20.5 (17:10) 8.3 (00:00) 14.4 10.28 (14:30) 7.22 (14:10) 0 0 0 0 0
11-10-2018 18.7 (17:10) 11.4 (23:50) 15.1 13.33 (18:00) 8.61 (18:00) 2.6 0 2.4 0.2 0
10-10-2018 20.4 (17:00) 4.7 (00:00) 12.5 11.39 (17:20) 7.22 (17:40) 0 0 0 0 0
09-10-2018 19.3 (16:40) 3.5 (06:00) 11.4 7.5 (16:30) 4.17 (18:40) 0 0 0 0 0
08-10-2018 18.7 (17:20) 1.6 (07:50) 10.2 6.67 (18:20) 3.89 (18:20) 0 0 0 0 0
07-10-2018 14.5 (17:10) 2.6 (07:30) 8.5 10.28 (15:20) 6.67 (12:10) 0 0 0 0 0
06-10-2018 19.1 (14:20) 5.3 (08:30) 12.2 16.11 (15:40) 10.28 (16:10) 0 0 0 0 0
05-10-2018 25.8 (17:10) 6.8 (07:50) 16.3 6.39 (17:40) 4.17 (18:40) 0 0 0 0 0
04-10-2018 27 (17:40) 5.6 (00:00) 16.3 4.44 (01:10) 3.06 (01:20) 0 0 0 0 0
03-10-2018 25.7 (17:30) 6.3 (00:00) 16 8.89 (14:10) 5.83 (14:50) 0 0 0 0 0
02-10-2018 23.3 (18:00) 1.9 (00:00) 12.6 5.56 (15:50) 3.06 (16:00) 0 0 0 0 0
01-10-2018 21.7 (17:40) 5.4 (00:00) 13.6 6.11 (13:40) 3.61 (20:40) 0 0 0 0 0
30-09-2018 27.1 (16:30) 8.6 (00:00) 17.9 8.61 (18:20) 5.28 (18:10) 0 0 0 0 0
29-09-2018 27.3 (17:20) 11.4 (00:00) 19.3 7.22 (13:00) 3.89 (12:10) 0 0 0 0 0
28-09-2018 27.7 (16:40) 11.3 (00:00) 19.5 6.39 (21:50) 4.72 (21:50) 0 0 0 0 0
27-09-2018 27.8 (17:00) 11.9 (00:00) 19.8 8.33 (18:00) 5 (18:00) 0 0 0 0 0
26-09-2018 26.3 (18:20) 5.3 (00:00) 15.8 5 (14:10) 2.78 (03:20) 0 0 0 0 0
25-09-2018 23.2 (18:10) 5.7 (00:00) 14.5 4.72 (21:50) 2.78 (22:00) 0 0 0 0 0
24-09-2018 24.8 (17:10) 10.7 (00:00) 17.7 8.33 (21:00) 5.28 (21:00) 0 0 0 0 0
23-09-2018 30.9 (17:30) 12.3 (07:50) 21.6 7.22 (18:10) 4.44 (18:10) 0 0 0 0 0
22-09-2018 28.8 (17:30) 10.8 (08:10) 19.8 5.28 (23:59) 3.89 (23:59) 0 0 0 0 0
21-09-2018 25.7 (16:50) 11.7 (06:50) 18.7 8.33 (11:20) 5.28 (11:20) 0 0 0 0 0
20-09-2018 -- (--) -- (--) -- 11.11 (16:40) 6.67 (17:00) 0 0 0 0 0

Gráficas

Temp. máximas Temp. mínimas Temp. medias Precipitaciones Rachas de viento máximas Velocidades máximas media en intervalos de 10 minutos

Datos horarios

Fecha y hora oficial Temperatura (ºC) Velocidad del viento (km/h) Dirección del viento Racha (km/h) Dirección de racha Precipitación (mm) Presión (hPa) Tendencia (hPa) Humedad (%)
2018-10-19 23:00:00 11.1 5 Noroeste 15 Norte 0 -- -- 82
2018-10-19 22:00:00 12.4 10 Norte 15 Norte 0 -- -- 79
2018-10-19 21:00:00 13.6 6 Norte 17 Norte 0 -- -- 73
2018-10-19 20:00:00 16.1 8 Nordeste 21 Norte 0 -- -- 64
2018-10-19 19:00:00 18.5 13 Nordeste 33 Este 0 -- -- 56
2018-10-19 18:00:00 19.1 22 Este 32 Este 0 -- -- 55
2018-10-19 17:00:00 20.1 18 Nordeste 31 Este 0 -- -- 50
2018-10-19 16:00:00 20.1 19 Nordeste 38 Nordeste 0 -- -- 49
2018-10-19 15:00:00 21.3 24 Este 33 Este 0 -- -- 48
2018-10-19 14:00:00 21.3 10 Nordeste 29 Este 0 -- -- 48
2018-10-19 13:00:00 18.8 16 Nordeste 32 Nordeste 0 -- -- 53
2018-10-19 12:00:00 18.4 17 Nordeste 30 Norte 0 -- -- 53
2018-10-19 11:00:00 14.5 6 Nordeste 12 Nordeste 0 -- -- 67
2018-10-19 10:00:00 9.6 2 Nordeste 8 Norte 0 -- -- 86
2018-10-19 09:00:00 7.1 8 Norte 10 Norte 0 -- -- 89
2018-10-19 08:00:00 8.1 8 Norte 11 Norte 0 -- -- 87
2018-10-19 07:00:00 7.6 6 Norte 9 Norte 0 -- -- 89
2018-10-19 06:00:00 8.2 6 Norte 12 Norte 0 -- -- 87
2018-10-19 05:00:00 9.3 10 Norte 13 Nordeste 0 -- -- 84
2018-10-19 04:00:00 9 9 Norte 13 Norte -- -- -- 88
2018-10-19 03:00:00 8.7 8 Norte 12 Norte 0 -- -- 91
2018-10-19 02:00:00 8.7 8 Noroeste 11 Noroeste 0 -- -- 90
2018-10-19 01:00:00 8.6 5 Norte 10 Norte 0 -- -- 88
2018-10-19 00:00:00 9.8 5 Norte 11 Norte 0 -- -- 85
2018-10-18 23:00:00 10.9 6 Norte 15 Norte 0 -- -- 82
2018-10-18 22:00:00 11.6 6 Norte 14 Norte 0 -- -- 78
2018-10-18 21:00:00 13.5 12 Norte 22 Norte 0 -- -- 69
2018-10-18 20:00:00 14.9 13 Norte 23 Norte 0 -- -- 61
2018-10-18 19:00:00 17.3 15 Norte 26 Norte 0 -- -- 54
2018-10-18 18:00:00 18.2 12 Norte 32 Este 0 -- -- 51
2018-10-18 17:00:00 18.5 15 Nordeste 25 Este 0 -- -- 51
2018-10-18 16:00:00 18.6 13 Nordeste 22 Nordeste 0 -- -- 48
2018-10-18 15:00:00 19.9 14 Nordeste 27 Nordeste 0 -- -- 48
2018-10-18 14:00:00 19.7 12 Este 27 Este 0 -- -- 50
2018-10-18 13:00:00 18.7 14 Nordeste 26 Nordeste 0 -- -- 50
2018-10-18 12:00:00 18.1 14 Nordeste 28 Nordeste 0 -- -- 52
2018-10-18 11:00:00 16.1 12 Nordeste 26 Nordeste 0 -- -- 60
2018-10-18 10:00:00 13.1 10 Norte 17 Norte 0 -- -- 75
2018-10-18 09:00:00 11.2 7 Norte 12 Norte 0 -- -- 83
2018-10-18 08:00:00 11.5 5 Nordeste 9 Nordeste 0 -- -- 83
2018-10-18 07:00:00 10.6 4 Nordeste 9 Norte 0 -- -- 90
2018-10-18 06:00:00 11 4 Norte 12 Nordeste 0 -- -- 87
2018-10-18 05:00:00 11.7 8 Nordeste 14 Este 0 -- -- 81
2018-10-18 04:00:00 11.8 10 Este 15 Este 0 -- -- 81
2018-10-18 03:00:00 11.9 9 Nordeste 18 Nordeste 0 -- -- 81
2018-10-18 02:00:00 11.7 6 Nordeste 13 Nordeste 0 -- -- 82
2018-10-18 01:00:00 11.3 5 Nordeste 11 Nordeste 0 -- -- 85
2018-10-18 00:00:00 10 5 Norte 11 Norte 0 -- -- 89
2018-10-17 23:00:00 10.8 8 Noroeste 10 Noroeste 0 -- -- 87
2018-10-17 22:00:00 12 4 Norte 6 Norte 0 -- -- 83
2018-10-17 21:00:00 12.8 3 Sudoeste 9 Sur 0 -- -- 77
2018-10-17 20:00:00 14.3 3 Sudeste 7 Este 0 -- -- 70
2018-10-17 19:00:00 15.4 5 Este 12 Sudeste 0 -- -- 67
2018-10-17 18:00:00 16.2 7 Este 11 Este 0 -- -- 59
2018-10-17 17:00:00 16.2 4 Este 15 Sudeste 0 -- -- 57
2018-10-17 16:00:00 17.3 4 Sur 14 Sudeste 0 -- -- 56
2018-10-17 15:00:00 16.4 7 Sudeste 17 Sudoeste 0 -- -- 60
2018-10-17 14:00:00 16 3 Este 10 Este 0 -- -- 65
2018-10-17 13:00:00 14.8 4 Este 10 Este 0 -- -- 71
2018-10-17 12:00:00 13 0 Calma 6 Este 0 -- -- 79
2018-10-17 11:00:00 10.4 2 Nordeste 4 Nordeste 0 -- -- 94
2018-10-17 10:00:00 6.6 3 Noroeste 8 Norte 0 -- -- 98
2018-10-17 09:00:00 3.8 5 Norte 11 Noroeste 0 -- -- 96
2018-10-17 08:00:00 3.8 6 Norte 7 Noroeste 0 -- -- 96
2018-10-17 07:00:00 4.1 5 Noroeste 7 Noroeste 0 -- -- 95
2018-10-17 06:00:00 4.6 4 Norte 8 Noroeste 0 -- -- 95
2018-10-17 05:00:00 4.7 4 Norte 8 Noroeste 0 -- -- 95
2018-10-17 04:00:00 5.3 6 Norte 9 Noroeste 0 -- -- 95
2018-10-17 03:00:00 5.6 8 Noroeste 11 Norte 0 -- -- 94
2018-10-17 02:00:00 5.9 0 Calma 0 Calma 0 -- -- 94
2018-10-17 01:00:00 6.4 0 Calma 0 Calma 0 -- -- 93
2018-10-17 00:00:00 7 0 Calma 0 Calma 0 -- -- 92
2018-10-16 23:00:00 7.8 0 Calma 0 Calma 0 -- -- 90
2018-10-16 22:00:00 8.7 0 Calma 0 Calma 0 -- -- 86
2018-10-16 21:00:00 10.9 0 Calma -- -- 0 -- -- 79
2018-10-16 20:00:00 13.3 0 Calma -- -- 0 -- -- 72
2018-10-16 19:00:00 16.4 0 Calma 0 Calma 0 -- -- 58
2018-10-16 18:00:00 17 0 Calma 2 Oeste 0 -- -- 56
2018-10-16 17:00:00 17 0 Calma 5 Este 0 -- -- 56
2018-10-16 16:00:00 15.8 3 Este 12 Sur 0 -- -- 62
2018-10-16 15:00:00 14.8 4 Sudeste 12 Oeste 0 -- -- 65
2018-10-16 14:00:00 13.4 4 Sur 10 Sudoeste 0 -- -- 72
2018-10-16 13:00:00 11.7 4 Sur 11 Este 0 -- -- 76
2018-10-16 12:00:00 10 6 Norte 14 Noroeste 0 -- -- 85
2018-10-16 11:00:00 8.2 12 Noroeste 17 Noroeste 0 -- -- 96
2018-10-16 10:00:00 7.1 5 Norte 8 Noroeste 0 -- -- 98
2018-10-16 09:00:00 6.1 6 Noroeste 12 Noroeste 0 -- -- 97
2018-10-16 08:00:00 6 0 Calma 11 Norte 0 -- -- 96
2018-10-16 07:00:00 6.6 7 Noroeste 14 Noroeste 0 -- -- 95
2018-10-16 06:00:00 7.8 8 Noroeste 14 Noroeste 0 -- -- 92
2018-10-16 05:00:00 8.6 4 Noroeste 9 Noroeste 0 -- -- 92
2018-10-16 04:00:00 8.8 5 Noroeste 9 Noroeste 0 -- -- 90
2018-10-16 03:00:00 9.4 2 Norte 8 Norte 0 -- -- 88
2018-10-16 02:00:00 9.3 0 Calma 6 Noroeste 0 -- -- 90
2018-10-16 01:00:00 9.4 2 Noroeste 7 Noroeste 0 -- -- 88
2018-10-16 00:00:00 9.3 3 Oeste 6 Oeste 0 -- -- 87
2018-10-15 23:00:00 9.4 0 Calma 10 Norte 0 -- -- 84
2018-10-15 22:00:00 9.6 2 Noroeste 5 Este 0 -- -- 85
2018-10-15 21:00:00 9.5 6 Nordeste 13 Norte 0 -- -- 82
2018-10-15 20:00:00 9.8 3 Nordeste 6 Norte 0 -- -- 84
2018-10-15 19:00:00 10 4 Norte 6 Norte 0 -- -- 83
2018-10-15 18:00:00 10.1 4 Este 8 Sur 0 -- -- 83
2018-10-15 17:00:00 10 5 Este 13 Este 0 -- -- 84
2018-10-15 16:00:00 9.2 8 Este 17 Este 0 -- -- 92
2018-10-15 15:00:00 8.5 7 Nordeste 18 Este 0 -- -- 92
2018-10-15 14:00:00 8.7 9 Este 17 Este 0 -- -- 93
2018-10-15 13:00:00 7.5 12 Este 23 Este 0 -- -- 95
2018-10-15 12:00:00 7.2 10 Este 20 Este 0.2 -- -- 95
2018-10-15 11:00:00 6.4 10 Este 16 Este 1.2 -- -- 94
2018-10-15 10:00:00 6.5 6 Este 13 Sudeste 0.8 -- -- 93
2018-10-15 09:00:00 6.2 8 Sur 13 Sur 0.2 -- -- 95
2018-10-15 08:00:00 6.1 5 Este 9 Sudeste 0.4 -- -- 94
2018-10-15 07:00:00 6.1 7 Sudeste 12 Sudeste 0.8 -- -- 93
2018-10-15 06:00:00 6.9 5 Sudeste 10 Este 0.2 -- -- 91
2018-10-15 05:00:00 6.8 5 Nordeste 9 Nordeste 0 -- -- 92
2018-10-15 04:00:00 6.3 3 Nordeste 7 Este 0 -- -- 94
2018-10-15 03:00:00 5.9 2 Este 9 Sudoeste 0 -- -- 94
2018-10-15 02:00:00 5.8 6 Sudoeste 12 Sudoeste 0 -- -- 93
2018-10-15 01:00:00 6.9 8 Noroeste 12 Noroeste 0 -- -- 89
2018-10-15 00:00:00 7.5 8 Noroeste 17 Noroeste 0 -- -- 89
2018-10-14 23:00:00 6.8 8 Noroeste 18 Noroeste 0 -- -- 90
2018-10-14 22:00:00 7.2 13 Noroeste 18 Noroeste 0 -- -- 89
2018-10-14 21:00:00 8.1 12 Oeste 23 Oeste 0 -- -- 87
2018-10-14 20:00:00 9.4 13 Oeste 31 Oeste 0 -- -- 81
2018-10-14 19:00:00 11.5 19 Oeste 41 Oeste 0 -- -- 72
2018-10-14 18:00:00 13.5 24 Oeste 40 Oeste 0 -- -- 65
2018-10-14 17:00:00 12.7 27 Oeste 39 Oeste 0 -- -- 69
2018-10-14 16:00:00 13.1 17 Noroeste 33 Oeste 0 -- -- 68
2018-10-14 15:00:00 11 24 Oeste 37 Noroeste 0 -- -- 75
2018-10-14 14:00:00 10.2 22 Oeste 39 Oeste 0 -- -- 77
2018-10-14 13:00:00 9 26 Oeste 40 Oeste 0 -- -- 83
2018-10-14 12:00:00 7.5 23 Oeste 42 Oeste 0.4 -- -- 89
2018-10-14 11:00:00 6.5 25 Oeste 45 Oeste 2.4 -- -- 91
2018-10-14 10:00:00 6.6 26 Oeste 44 Oeste 0.8 -- -- 91
2018-10-14 09:00:00 7.2 26 Oeste 48 Oeste 0 -- -- 89
2018-10-14 08:00:00 9 24 Oeste 38 Oeste 0 -- -- 84
2018-10-14 07:00:00 11.4 20 Sudoeste 32 Sudoeste 0 -- -- 86
2018-10-14 06:00:00 13.3 27 Sur 50 Sur 0 -- -- 76
2018-10-14 05:00:00 15.1 28 Sur 63 Sudeste 0 -- -- 76
2018-10-14 04:00:00 16.4 28 Sur 45 Sur 0 -- -- 70
2018-10-14 03:00:00 16.3 24 Sur 35 Sur 0.2 -- -- 71
2018-10-14 02:00:00 16.3 16 Este 22 Este 0 -- -- 68
2018-10-14 01:00:00 15.6 13 Este 19 Este 0 -- -- 73
2018-10-14 00:00:00 16.1 9 Este 13 Sudeste 0 -- -- 70
2018-10-13 23:00:00 17.4 10 Sudeste 14 Sudeste 0 -- -- 65
2018-10-13 22:00:00 16.6 4 Sur 17 Sudeste 0 -- -- 64
2018-10-13 21:00:00 18.8 13 Este 22 Este 0 -- -- 58
2018-10-13 20:00:00 20.1 12 Este 16 Este 0 -- -- 57
2018-10-13 19:00:00 21.3 9 Este 26 Sudeste 0 -- -- 53
2018-10-13 18:00:00 22.4 15 Sudeste 25 Sudeste 0 -- -- 49
2018-10-13 17:00:00 22.4 15 Sudeste 24 Sudeste 0 -- -- 50
2018-10-13 16:00:00 21.5 9 Sudeste 25 Sudeste 0 -- -- 57
2018-10-13 15:00:00 20.2 14 Sudeste 26 Sudeste 0 -- -- 61
2018-10-13 14:00:00 19.8 12 Sur 24 Sur 0 -- -- 63
2018-10-13 13:00:00 18.4 15 Sudeste 23 Sudeste 0 -- -- 68
2018-10-13 12:00:00 17.6 9 Sudeste 18 Sur 0 -- -- 71
2018-10-13 11:00:00 15.1 7 Sudeste 12 Este 0 -- -- 80
2018-10-13 10:00:00 12.2 9 Este 19 Este 0 -- -- 89
2018-10-13 09:00:00 11.1 12 Este 18 Este 0 -- -- 92
2018-10-13 08:00:00 10.6 12 Este 15 Este 0 -- -- 92
2018-10-13 07:00:00 10.6 6 Este 15 Sudeste 0 -- -- 89
2018-10-13 06:00:00 10.8 8 Sudeste 13 Este 0 -- -- 92
2018-10-13 05:00:00 10.6 6 Este 13 Este 0 -- -- 90
2018-10-13 04:00:00 11.7 8 Nordeste 10 Nordeste 0 -- -- 88
2018-10-13 03:00:00 13.1 5 Sudoeste 10 Sudoeste 0 -- -- 82
2018-10-13 02:00:00 14.8 6 Sudeste 13 Sur 0 -- -- 77
2018-10-13 01:00:00 16 10 Sur 18 Sudoeste 0 -- -- 73
2018-10-13 00:00:00 15.5 11 Sur 18 Sur 0 -- -- 75
2018-10-12 23:00:00 14.6 8 Sur 15 Sur 0 -- -- 79
2018-10-12 22:00:00 15.1 8 Sudeste 12 Este 0 -- -- 79
2018-10-12 21:00:00 14.2 3 Nordeste 9 Noroeste 0 -- -- 80
2018-10-12 20:00:00 15.6 7 Sudoeste 15 Sudoeste 0 -- -- 74
2018-10-12 19:00:00 17.7 12 Sudoeste 18 Sur 0 -- -- 64
2018-10-12 18:00:00 19.1 12 Sur 25 Sudoeste 0 -- -- 59
2018-10-12 17:00:00 20.4 17 Sur 25 Sur 0 -- -- 54
2018-10-12 16:00:00 18.6 15 Sur 32 Sur 0 -- -- 59
2018-10-12 15:00:00 18.1 19 Sur 37 Sur 0 -- -- 60
2018-10-12 14:00:00 18.3 22 Sur 34 Sur 0 -- -- 59
2018-10-12 13:00:00 16.9 19 Sur 32 Sur 0 -- -- 65
2018-10-12 12:00:00 14.7 17 Sur 29 Sur 0 -- -- 75
2018-10-12 11:00:00 12.9 14 Sur 30 Sur 0 -- -- 83
2018-10-12 10:00:00 11 13 Sudeste 22 Sudeste 0 -- -- 96
2018-10-12 09:00:00 9.2 13 Sudeste 20 Este 0 -- -- 96
2018-10-12 08:00:00 8.4 9 Este 15 Este 0 -- -- 94
2018-10-12 07:00:00 8.6 9 Este 13 Sudeste 0 -- -- 91
2018-10-12 06:00:00 9.4 12 Sudeste 18 Sudeste 0 -- -- 92
2018-10-12 05:00:00 8.9 7 Sudeste 16 Sudeste 0 -- -- 91
2018-10-12 04:00:00 9.4 12 Este 22 Sudeste 0 -- -- 91
2018-10-12 03:00:00 10.7 15 Sur 26 Sur 0 -- -- 86
2018-10-12 02:00:00 11.4 14 Sur 22 Sur 0 -- -- 85
2018-10-12 01:00:00 11.7 13 Sudeste 19 Sur 0 -- -- 88
2018-10-12 00:00:00 11.4 5 Sudeste 17 Sudeste 0 -- -- 92
2018-10-11 23:00:00 11.7 13 Sudeste 18 Sudeste 0 -- -- 90
2018-10-11 22:00:00 11.6 7 Sudeste 15 Sur 0 -- -- 81
2018-10-11 21:00:00 12.6 10 Sur 17 Sur 0 -- -- 74
2018-10-11 20:00:00 13.8 10 Sur 33 Sudoeste 0 -- -- 67
2018-10-11 19:00:00 16.6 24 Sudoeste 40 Sudoeste 0 -- -- 57
2018-10-11 18:00:00 17.8 31 Sudoeste 48 Sudoeste 0 -- -- 53
2018-10-11 17:00:00 18.6 30 Sudoeste 42 Sur 0 -- -- 49
2018-10-11 16:00:00 17.9 26 Sudoeste 41 Sur 0 -- -- 60
2018-10-11 15:00:00 16.9 24 Sur 35 Sur 0 -- -- 70
2018-10-11 14:00:00 16 26 Sur 38 Sur 0 -- -- 78
2018-10-11 13:00:00 15.1 21 Sur 35 Sur 0.2 -- -- 91
2018-10-11 12:00:00 13.4 22 Sur 30 Sur 0.6 -- -- 94
2018-10-11 11:00:00 13 16 Sur 24 Sudeste 0.4 -- -- 94
2018-10-11 10:00:00 12.7 10 Sur 17 Sur 0 -- -- 93
2018-10-11 09:00:00 12.3 9 Sur 17 Sudeste 1.4 -- -- 92
2018-10-11 08:00:00 12.2 8 Sudeste 20 Sudeste 0 -- -- 86
2018-10-11 07:00:00 12.1 11 Sudeste 21 Sudeste 0 -- -- 84
2018-10-11 06:00:00 12.6 12 Sur 18 Sur 0 -- -- 81
2018-10-11 05:00:00 12.8 9 Sur 18 Sur 0 -- -- 77
2018-10-11 04:00:00 12.6 7 Sudeste 17 Este -- -- -- 75
2018-10-11 03:00:00 12.4 9 Sudeste 22 Sudeste 0 -- -- 76
2018-10-11 02:00:00 13.3 12 Sudeste 28 Sur 0 -- -- 71
2018-10-11 01:00:00 12 10 Sur 15 Sur 0 -- -- 74
2018-10-11 00:00:00 13.3 4 Sur 24 Sudoeste 0 -- -- 68
2018-10-10 23:00:00 12.7 13 Sur 24 Sur 0 -- -- 72
2018-10-10 22:00:00 14.3 20 Sur 27 Sur 0 -- -- 65
2018-10-10 21:00:00 15.1 11 Sur 24 Sur 0 -- -- 61
2018-10-10 20:00:00 15.5 4 Sur 23 Sudoeste 0 -- -- 52
2018-10-10 19:00:00 18.6 19 Sudoeste 31 Sudoeste 0 -- -- 42
2018-10-10 18:00:00 19.9 21 Sudoeste 41 Sur 0 -- -- 37
2018-10-10 17:00:00 20.4 21 Sur 33 Sur 0 -- -- 37
2018-10-10 16:00:00 18.4 12 Sudeste 26 Sudeste 0 -- -- 48
2018-10-10 15:00:00 16.7 12 Sur 21 Sudeste 0 -- -- 53
2018-10-10 14:00:00 13.2 5 Sudeste 13 Sur 0 -- -- 63
2018-10-10 13:00:00 12.6 7 Sudeste 12 Sudeste 0 -- -- 67
2018-10-10 12:00:00 11.1 6 Sudeste 9 Sudeste 0 -- -- 72
2018-10-10 11:00:00 10 3 Este 7 Nordeste 0 -- -- 76
2018-10-10 10:00:00 8.8 0 Calma 13 Nordeste 0 -- -- 83
2018-10-10 09:00:00 6.2 6 Nordeste 10 Nordeste 0 -- -- 92
2018-10-10 08:00:00 4.7 3 Noroeste 9 Noroeste 0 -- -- 90
2018-10-10 07:00:00 5.1 6 Norte 11 Nordeste 0 -- -- 87
2018-10-10 06:00:00 6.8 3 Nordeste 10 Nordeste 0 -- -- 82
2018-10-10 05:00:00 8.3 6 Nordeste 12 Nordeste 0 -- -- 77
2018-10-10 04:00:00 8.6 4 Nordeste 12 Nordeste 0 -- -- 77
2018-10-10 03:00:00 7.5 5 Nordeste 12 Nordeste 0 -- -- 76
2018-10-10 02:00:00 7.3 5 Nordeste 14 Nordeste 0 -- -- 76
2018-10-10 01:00:00 8.4 4 Norte 12 Nordeste 0 -- -- 73
2018-10-10 00:00:00 9.9 8 Nordeste 16 Nordeste 0 -- -- 66
2018-10-09 23:00:00 8.4 13 Este 16 Este 0 -- -- 71
2018-10-09 22:00:00 9.9 12 Este 17 Este 0 -- -- 64
2018-10-09 21:00:00 11.4 10 Nordeste 22 Este 0 -- -- 58
2018-10-09 20:00:00 14.4 8 Este 21 Sudeste 0 -- -- 47
2018-10-09 19:00:00 17.8 14 Este 25 Sudeste 0 -- -- 38
2018-10-09 18:00:00 18.5 14 Sudeste 26 Este 0 -- -- 34
2018-10-09 17:00:00 19.2 14 Sudeste 27 Este 0 -- -- 33
2018-10-09 16:00:00 19.1 11 Sudeste 21 Este 0 -- -- 35
2018-10-09 15:00:00 17.7 8 Este 21 Este 0 -- -- 43
2018-10-09 14:00:00 17.1 10 Este 25 Este 0 -- -- 44
2018-10-09 13:00:00 15.8 12 Este 22 Este 0 -- -- 51
2018-10-09 12:00:00 14.4 8 Este 15 Nordeste 0 -- -- 57
2018-10-09 11:00:00 12.3 10 Este 18 Este 0 -- -- 68
2018-10-09 10:00:00 8 5 Noroeste 8 Norte 0 -- -- 91
2018-10-09 09:00:00 5.1 6 Noroeste 10 Nordeste 0 -- -- 92
2018-10-09 08:00:00 5.7 6 Nordeste 11 Nordeste 0 -- -- 94
2018-10-09 07:00:00 4.2 6 Norte 13 Norte 0 -- -- 94
2018-10-09 06:00:00 3.5 7 Norte 13 Norte 0 -- -- 92
2018-10-09 05:00:00 3.9 8 Norte 12 Norte 0 -- -- 91
2018-10-09 04:00:00 4.1 5 Norte 10 Norte 0 -- -- 90
2018-10-09 03:00:00 4.6 6 Noroeste 10 Noroeste 0 -- -- 88
2018-10-09 02:00:00 5.4 7 Norte 10 Norte 0 -- -- 87
2018-10-09 01:00:00 6.2 8 Noroeste 11 Noroeste 0 -- -- 85
2018-10-09 00:00:00 7 9 Norte 13 Norte 0 -- -- 83
2018-10-08 23:00:00 7.6 7 Norte 8 Norte 0 -- -- 80
2018-10-08 22:00:00 9.4 4 Este 11 Este 0 -- -- 72
2018-10-08 21:00:00 10.9 10 Este 15 Este 0 -- -- 67
2018-10-08 20:00:00 14.4 8 Este 19 Sudeste 0 -- -- 55
2018-10-08 19:00:00 17.4 7 Sudeste 24 Sudeste 0 -- -- 47
2018-10-08 18:00:00 18.7 8 Sudeste 19 Este 0 -- -- 42
2018-10-08 17:00:00 18.5 5 Sudeste 22 Sudeste 0 -- -- 42
2018-10-08 16:00:00 18.2 5 Este 19 Sudeste 0 -- -- 42
2018-10-08 15:00:00 17.4 10 Sur 21 Este 0 -- -- 44
2018-10-08 14:00:00 16.8 10 Este 19 Este 0 -- -- 44
2018-10-08 13:00:00 16.2 6 Sudeste 16 Este 0 -- -- 47
2018-10-08 12:00:00 14.5 8 Este 15 Este 0 -- -- 54
2018-10-08 11:00:00 11.6 8 Noroeste 17 Norte 0 -- -- 61
2018-10-08 10:00:00 6.3 10 Noroeste 18 Noroeste 0 -- -- 81
2018-10-08 09:00:00 1.9 8 Noroeste 14 Norte 0 -- -- 91
2018-10-08 08:00:00 1.6 9 Noroeste 14 Noroeste 0 -- -- 90
2018-10-08 07:00:00 1.9 9 Noroeste 13 Noroeste 0 -- -- 89
2018-10-08 06:00:00 2.3 9 Norte 13 Norte 0 -- -- 88
2018-10-08 05:00:00 2.2 9 Noroeste 13 Noroeste 0 -- -- 89
2018-10-08 04:00:00 2.5 8 Norte 14 Noroeste 0 -- -- 88
2018-10-08 03:00:00 2.6 7 Noroeste 9 Noroeste 0 -- -- 88
2018-10-08 02:00:00 3.3 2 Oeste 6 Oeste 0 -- -- 85
2018-10-08 01:00:00 3.7 6 Oeste 12 Sudeste 0 -- -- 84
2018-10-08 00:00:00 4.9 7 Noroeste 10 Noroeste 0 -- -- 79
2018-10-07 23:00:00 6.5 6 Nordeste 20 Norte 0 -- -- 71
2018-10-07 22:00:00 8 14 Norte 21 Norte 0 -- -- 65
2018-10-07 21:00:00 8.5 9 Norte 21 Nordeste 0 -- -- 64
2018-10-07 20:00:00 10.4 15 Nordeste 32 Norte 0 -- -- 57
2018-10-07 19:00:00 13 15 Nordeste 26 Nordeste 0 -- -- 47
2018-10-07 18:00:00 13.9 15 Nordeste 28 Nordeste 0 -- -- 48
2018-10-07 17:00:00 14.4 15 Noroeste 36 Noroeste 0 -- -- 47
2018-10-07 16:00:00 14.3 21 Norte 37 Norte 0 -- -- 44
2018-10-07 15:00:00 13.7 21 Norte 35 Norte 0 -- -- 44
2018-10-07 14:00:00 13.4 18 Nordeste 36 Norte 0 -- -- 43
2018-10-07 13:00:00 12.5 17 Norte 36 Norte 0 -- -- 45
2018-10-07 12:00:00 11.3 12 Norte 31 Nordeste 0 -- -- 52
2018-10-07 11:00:00 9.4 6 Noroeste 13 Noroeste 0 -- -- 60
2018-10-07 10:00:00 6.5 9 Noroeste 12 Noroeste 0 -- -- 73
2018-10-07 09:00:00 3.8 6 Noroeste 12 Noroeste 0 -- -- 83
2018-10-07 08:00:00 3.6 10 Noroeste 17 Noroeste 0 -- -- 82
2018-10-07 07:00:00 3.1 7 Noroeste 16 Noroeste 0 -- -- 81
2018-10-07 06:00:00 3 9 Oeste 15 Noroeste 0 -- -- 81
2018-10-07 05:00:00 3.6 15 Noroeste 18 Noroeste 0 -- -- 80
2018-10-07 04:00:00 3.3 6 Sudoeste 11 Noroeste 0 -- -- 79
2018-10-07 03:00:00 4.5 6 Noroeste 14 Noroeste 0 -- -- 79
2018-10-07 02:00:00 5.6 8 Noroeste 23 Noroeste 0 -- -- 76
2018-10-07 01:00:00 6.3 13 Noroeste 19 Noroeste 0 -- -- 74
2018-10-07 00:00:00 5.9 7 Sur 18 Oeste 0 -- -- 77
2018-10-06 23:00:00 7.2 10 Oeste 15 Oeste 0 -- -- 70
2018-10-06 22:00:00 8.2 6 Oeste 25 Noroeste 0 -- -- 66
2018-10-06 21:00:00 9.7 14 Noroeste 24 Noroeste 0 -- -- 57
2018-10-06 20:00:00 11.7 15 Oeste 37 Oeste 0 -- -- 60
2018-10-06 19:00:00 13.8 23 Oeste 49 Oeste 0 -- -- 56
2018-10-06 18:00:00 15.7 31 Oeste 46 Oeste 0 -- -- 54
2018-10-06 17:00:00 16.4 29 Oeste 57 Oeste 0 -- -- 58
2018-10-06 16:00:00 18 30 Oeste 58 Oeste 0 -- -- 51
2018-10-06 15:00:00 19.1 33 Noroeste 52 Noroeste 0 -- -- 47
2018-10-06 14:00:00 18.8 21 Oeste 38 Oeste 0 -- -- 48
2018-10-06 13:00:00 18.9 16 Oeste 26 Oeste 0 -- -- 47
2018-10-06 12:00:00 16.5 3 Oeste 8 Sudeste 0 -- -- 48
2018-10-06 11:00:00 13.3 2 Sudoeste 8 Sudeste 0 -- -- 61
2018-10-06 10:00:00 10.2 4 Sudeste 7 Sudeste 0 -- -- 78
2018-10-06 09:00:00 5.5 0 Calma 11 Norte 0 -- -- 88
2018-10-06 08:00:00 5.6 7 Noroeste 12 Noroeste 0 -- -- 87
2018-10-06 07:00:00 6.4 3 Nordeste 5 Nordeste 0 -- -- 85
2018-10-06 06:00:00 6.3 4 Norte 10 Norte 0 -- -- 86
2018-10-06 05:00:00 7 8 Norte 9 Noroeste 0 -- -- 82
2018-10-06 04:00:00 8.4 3 Noroeste 9 Noroeste 0 -- -- 78
2018-10-06 03:00:00 8.8 6 Noroeste 10 Noroeste 0 -- -- 77
2018-10-06 02:00:00 9 8 Noroeste 10 Noroeste 0 -- -- 76
2018-10-06 01:00:00 9.9 9 Noroeste 14 Noroeste 0 -- -- 72
2018-10-06 00:00:00 11 12 Noroeste 14 Noroeste 0 -- -- 68
2018-10-05 23:00:00 12.2 9 Oeste 11 Oeste 0 -- -- 62
2018-10-05 22:00:00 14.7 9 Sudoeste 14 Sudoeste 0 -- -- 48
2018-10-05 21:00:00 17 8 Sudoeste 12 Sudoeste 0 -- -- 42
2018-10-05 20:00:00 20.1 11 Sudoeste 19 Sur 0 -- -- 36
2018-10-05 19:00:00 25.1 14 Sur 22 Sudoeste 0 -- -- 25
2018-10-05 18:00:00 25.3 12 Sudeste 23 Este 0 -- -- 29
2018-10-05 17:00:00 25.6 8 Sudeste 19 Sudoeste 0 -- -- 29
2018-10-05 16:00:00 25.4 7 Sur 21 Sur 0 -- -- 29
2018-10-05 15:00:00 24.3 9 Sur 20 Sur 0 -- -- 31
2018-10-05 14:00:00 22.4 5 Sudeste 12 Este 0 -- -- 31
2018-10-05 13:00:00 20.7 5 Sudeste 12 Este 0 -- -- 35
2018-10-05 12:00:00 18.8 4 Este 13 Este 0 -- -- 38
2018-10-05 11:00:00 16.5 9 Este 14 Este 0 -- -- 45
2018-10-05 10:00:00 11.1 5 Norte 12 Noroeste 0 -- -- 76
2018-10-05 09:00:00 7 8 Noroeste 12 Noroeste 0 -- -- 90
2018-10-05 08:00:00 6.8 8 Noroeste 10 Noroeste 0 -- -- 89
2018-10-05 07:00:00 7.1 7 Norte 10 Norte 0 -- -- 86
2018-10-05 06:00:00 7.9 8 Norte 12 Norte 0 -- -- 86
2018-10-05 05:00:00 8.7 8 Norte 16 Noroeste 0 -- -- 84
2018-10-05 04:00:00 9.5 7 Nordeste 14 Norte 0 -- -- 78
2018-10-05 03:00:00 8.7 8 Norte 12 Noroeste 0 -- -- 82
2018-10-05 02:00:00 9.2 7 Norte 12 Norte 0 -- -- 78
2018-10-05 01:00:00 9.9 8 Norte 13 Norte 0 -- -- 74
2018-10-05 00:00:00 11.4 7 Nordeste 12 Norte 0 -- -- 69
2018-10-04 23:00:00 12.5 10 Este 13 Este 0 -- -- 63
2018-10-04 22:00:00 13.2 10 Norte 11 Norte 0 -- -- 67
2018-10-04 21:00:00 16.8 3 Este 6 Sudeste 0 -- -- 54
2018-10-04 20:00:00 22.1 5 Sudeste 10 Sudeste 0 -- -- 36
2018-10-04 19:00:00 25.1 8 Sudeste 15 Sudeste 0 -- -- 30
2018-10-04 18:00:00 26.8 9 Sudeste 14 Sudeste 0 -- -- 25
2018-10-04 17:00:00 26.6 7 Sudeste 14 Sudeste 0 -- -- 24
2018-10-04 16:00:00 26.2 8 Sudeste 15 Sur 0 -- -- 27
2018-10-04 15:00:00 25.2 8 Sur 16 Sur 0 -- -- 29
2018-10-04 14:00:00 23.5 8 Sur 15 Sudeste 0 -- -- 36
2018-10-04 13:00:00 21.5 5 Sudeste 11 Sur 0 -- -- 40
2018-10-04 12:00:00 19.1 4 Sur 9 Sur 0 -- -- 46
2018-10-04 11:00:00 16.4 0 Calma 5 Este 0 -- -- 56
2018-10-04 10:00:00 11.3 0 Calma 10 Noroeste 0 -- -- 77
2018-10-04 09:00:00 6 8 Norte 11 Noroeste 0 -- -- 90
2018-10-04 08:00:00 5.8 7 Noroeste 10 Noroeste 0 -- -- 89
2018-10-04 07:00:00 6.1 2 Norte 8 Norte 0 -- -- 86
2018-10-04 06:00:00 6.6 5 Noroeste 8 Norte 0 -- -- 87
2018-10-04 05:00:00 7.6 6 Norte 9 Norte 0 -- -- 84
2018-10-04 04:00:00 8.5 7 Norte 12 Noroeste 0 -- -- 81
2018-10-04 03:00:00 9.3 9 Noroeste 13 Noroeste 0 -- -- 77
2018-10-04 02:00:00 9.9 9 Noroeste 16 Noroeste 0 -- -- 76
2018-10-04 01:00:00 10.3 10 Noroeste 14 Noroeste 0 -- -- 76
2018-10-04 00:00:00 11.4 10 Noroeste 12 Noroeste 0 -- -- 71
2018-10-03 23:00:00 15.1 9 Este 17 Nordeste 0 -- -- 55
2018-10-03 22:00:00 14.6 15 Nordeste 18 Este 0 -- -- 57
2018-10-03 21:00:00 15.9 10 Este 18 Este 0 -- -- 53
2018-10-03 20:00:00 20.2 9 Este 12 Este 0 -- -- 42
2018-10-03 19:00:00 24.2 9 Este 22 Este 0 -- -- 34
2018-10-03 18:00:00 25 14 Este 24 Este 0 -- -- 30
2018-10-03 17:00:00 25.6 12 Este 28 Este 0 -- -- 31
2018-10-03 16:00:00 25.2 15 Este 31 Este 0 -- -- 32
2018-10-03 15:00:00 24.6 19 Este 32 Este 0 -- -- 34
2018-10-03 14:00:00 24 18 Este 30 Este 0 -- -- 37
2018-10-03 13:00:00 21.9 15 Este 32 Este 0 -- -- 45
2018-10-03 12:00:00 20.2 17 Este 31 Este 0 -- -- 47
2018-10-03 11:00:00 17.2 4 Norte 15 Norte 0 -- -- 47
2018-10-03 10:00:00 11.6 8 Noroeste 16 Norte 0 -- -- 57
2018-10-03 09:00:00 7.1 9 Norte 17 Noroeste 0 -- -- 69
2018-10-03 08:00:00 6.5 10 Noroeste 16 Noroeste 0 -- -- 70
2018-10-03 07:00:00 6.8 11 Noroeste 17 Noroeste 0 -- -- 68
2018-10-03 06:00:00 6.6 11 Noroeste 15 Noroeste 0 -- -- 69
2018-10-03 05:00:00 6.4 10 Norte 14 Norte 0 -- -- 71
2018-10-03 04:00:00 6.8 11 Norte 17 Norte 0 -- -- 69
2018-10-03 03:00:00 6.9 10 Noroeste 15 Noroeste 0 -- -- 69
2018-10-03 02:00:00 7.3 9 Noroeste 13 Noroeste 0 -- -- 68
2018-10-03 01:00:00 8 9 Norte 17 Noroeste 0 -- -- 65
2018-10-03 00:00:00 8 10 Noroeste 13 Noroeste 0 -- -- 69
2018-10-02 23:00:00 9.8 3 Norte 8 Nordeste 0 -- -- 65
2018-10-02 22:00:00 12.6 6 Este 10 Este 0 -- -- 48
2018-10-02 21:00:00 15.5 9 Este 18 Este 0 -- -- 38
2018-10-02 20:00:00 19.5 8 Este 12 Este 0 -- -- 30
2018-10-02 19:00:00 22.7 2 Este 10 Este 0 -- -- 20
2018-10-02 18:00:00 23.3 0 Calma 12 Sudeste 0 -- -- 17
2018-10-02 17:00:00 22.3 7 Este 20 Nordeste 0 -- -- 19
2018-10-02 16:00:00 21.1 11 Este 20 Este 0 -- -- 24
2018-10-02 15:00:00 19.4 7 Este 19 Este 0 -- -- 25
2018-10-02 14:00:00 17.1 4 Este 10 Nordeste 0 -- -- 37
2018-10-02 13:00:00 14.4 4 Este 9 Nordeste 0 -- -- 49
2018-10-02 12:00:00 12.3 0 Calma 6 Nordeste 0 -- -- 61
2018-10-02 11:00:00 9.3 3 Noroeste 8 Norte 0 -- -- 72
2018-10-02 10:00:00 5.9 4 Norte 8 Norte 0 -- -- 84
2018-10-02 09:00:00 2 4 Norte 12 Noroeste 0 -- -- 90
2018-10-02 08:00:00 2.1 6 Noroeste 9 Norte 0 -- -- 90
2018-10-02 07:00:00 2.4 6 Norte 11 Norte 0 -- -- 90
2018-10-02 06:00:00 3.1 6 Noroeste 9 Norte 0 -- -- 90
2018-10-02 05:00:00 3.8 6 Noroeste 9 Noroeste 0 -- -- 88
2018-10-02 04:00:00 5.4 4 Noroeste 6 Noroeste 0 -- -- 87
2018-10-02 03:00:00 5.9 4 Sur 9 Sur 0 -- -- 87
2018-10-02 02:00:00 6.5 5 Sur 6 Sudoeste 0 -- -- 84
2018-10-02 01:00:00 7.8 4 Sudoeste 7 Sudoeste 0 -- -- 81
2018-10-02 00:00:00 9.2 2 Sur 16 Este 0 -- -- 73
2018-10-01 23:00:00 10.8 11 Este 20 Este 0 -- -- 69
2018-10-01 22:00:00 12.4 11 Este 22 Este 0 -- -- 64
2018-10-01 21:00:00 14.3 12 Este 22 Este 0 -- -- 57
2018-10-01 20:00:00 17.5 4 Norte 12 Este 0 -- -- 45
2018-10-01 19:00:00 20.6 5 Este 9 Este 0 -- -- 35
2018-10-01 18:00:00 21.4 8 Sudeste 12 Sur 0 -- -- 32
2018-10-01 17:00:00 21.3 5 Oeste 15 Sur 0 -- -- 34
2018-10-01 16:00:00 20.8 7 Sur 18 Sudeste 0 -- -- 35
2018-10-01 15:00:00 19.5 6 Sudeste 19 Este 0 -- -- 38
2018-10-01 14:00:00 18.7 8 Este 22 Este 0 -- -- 41
2018-10-01 13:00:00 17.4 8 Este 17 Este 0 -- -- 45
2018-10-01 12:00:00 15.9 6 Este 14 Este 0 -- -- 51
2018-10-01 11:00:00 13.8 3 Este 9 Este 0 -- -- 60
2018-10-01 10:00:00 9.9 3 Norte 6 Norte 0 -- -- 73
2018-10-01 09:00:00 5.9 5 Norte 13 Noroeste 0 -- -- 87
2018-10-01 08:00:00 6.2 3 Nordeste 7 Oeste 0 -- -- 83
2018-10-01 07:00:00 5.8 0 Calma 8 Sudeste 0 -- -- 84
2018-10-01 06:00:00 5.9 3 Nordeste 8 Norte 0 -- -- 82
2018-10-01 05:00:00 7.3 8 Norte 12 Norte 0 -- -- 75
2018-10-01 04:00:00 7.7 6 Norte 12 Este 0 -- -- 74
2018-10-01 03:00:00 9.2 4 Nordeste 16 Norte 0 -- -- 66
2018-10-01 02:00:00 10.7 10 Nordeste 15 Nordeste 0 -- -- 57
2018-10-01 01:00:00 11.1 6 Nordeste 12 Nordeste 0 -- -- 62
2018-10-01 00:00:00 12 4 Nordeste 9 Nordeste 0 -- -- 57
2018-09-30 23:00:00 13 5 Este 20 Norte 0 -- -- 58
2018-09-30 22:00:00 14.1 9 Norte 16 Noroeste 0 -- -- 57
2018-09-30 21:00:00 17.2 9 Norte 19 Noroeste 0 -- -- 49
2018-09-30 20:00:00 20.6 11 Norte 19 Oeste 0 -- -- 39
2018-09-30 19:00:00 25.2 15 Oeste 31 Oeste 0 -- -- 29
2018-09-30 18:00:00 26.7 16 Oeste 25 Sudoeste 0 -- -- 26
2018-09-30 17:00:00 26.9 12 Sudoeste 21 Oeste 0 -- -- 23
2018-09-30 16:00:00 26.2 4 Norte 18 Sudoeste 0 -- -- 27
2018-09-30 15:00:00 25.3 10 Sudoeste 19 Sudoeste 0 -- -- 33
2018-09-30 14:00:00 23.7 7 Sudoeste 18 Sudoeste 0 -- -- 38
2018-09-30 13:00:00 21.6 10 Sudoeste 18 Sudoeste 0 -- -- 48
2018-09-30 12:00:00 19.7 8 Sudoeste 13 Sudoeste 0 -- -- 55
2018-09-30 11:00:00 17.3 4 Noroeste 9 Noroeste 0 -- -- 63
2018-09-30 10:00:00 12.7 6 Noroeste 12 Noroeste 0 -- -- 78
2018-09-30 09:00:00 8.9 8 Noroeste 10 Noroeste 0 -- -- 89
2018-09-30 08:00:00 9 7 Norte 8 Norte 0 -- -- 88
2018-09-30 07:00:00 9.5 6 Norte 10 Nordeste 0 -- -- 88
2018-09-30 06:00:00 9.8 5 Nordeste 10 Norte 0 -- -- 86
2018-09-30 05:00:00 10.9 8 Noroeste 15 Noroeste 0 -- -- 85
2018-09-30 04:00:00 11.4 8 Noroeste 12 Norte 0 -- -- 85
2018-09-30 03:00:00 12.5 9 Norte 12 Norte 0 -- -- 83
2018-09-30 02:00:00 14.4 3 Nordeste 12 Norte 0 -- -- 72
2018-09-30 01:00:00 14.6 9 Norte 13 Norte 0 -- -- 76
2018-09-30 00:00:00 16.4 4 Norte 9 Norte 0 -- -- 70
2018-09-29 23:00:00 17.8 8 Norte 12 Norte 0 -- -- 64
2018-09-29 22:00:00 19.7 8 Nordeste 19 Nordeste 0 -- -- 54
2018-09-29 21:00:00 20 6 Nordeste 13 Norte 0 -- -- 57
2018-09-29 20:00:00 23.3 6 Noroeste 12 Norte 0 -- -- 48
2018-09-29 19:00:00 26.6 6 Sur 13 Sudoeste 0 -- -- 34
2018-09-29 18:00:00 27.2 4 Sudoeste 14 Sudoeste 0 -- -- 33
2018-09-29 17:00:00 26.9 4 Sur 18 Sudoeste 0 -- -- 34
2018-09-29 16:00:00 26.5 6 Sudoeste 16 Sudoeste 0 -- -- 35
2018-09-29 15:00:00 25.8 4 Sudoeste 17 Este 0 -- -- 38
2018-09-29 14:00:00 24.6 5 Sudeste 21 Sudeste 0 -- -- 43
2018-09-29 13:00:00 23.5 12 Este 26 Este 0 -- -- 45
2018-09-29 12:00:00 22.3 14 Este 25 Este 0 -- -- 50
2018-09-29 11:00:00 18.9 4 Noroeste 12 Noroeste 0 -- -- 64
2018-09-29 10:00:00 14.6 8 Noroeste 13 Noroeste 0 -- -- 78
2018-09-29 09:00:00 11.6 9 Noroeste 13 Noroeste 0 -- -- 88
2018-09-29 08:00:00 11.5 9 Noroeste 14 Noroeste 0 -- -- 88
2018-09-29 07:00:00 11.7 9 Noroeste 17 Noroeste 0 -- -- 87
2018-09-29 06:00:00 12.2 9 Norte 15 Norte 0 -- -- 86
2018-09-29 05:00:00 12.2 9 Noroeste 14 Noroeste 0 -- -- 87
2018-09-29 04:00:00 12.5 10 Noroeste 14 Noroeste 0 -- -- 86
2018-09-29 03:00:00 13 9 Noroeste 16 Norte 0 -- -- 84
2018-09-29 02:00:00 14.2 9 Noroeste 14 Nordeste 0 -- -- 79
2018-09-29 01:00:00 16.4 10 Nordeste 15 Nordeste 0 -- -- 69
2018-09-29 00:00:00 17 5 Este 16 Nordeste 0 -- -- 69
2018-09-28 23:00:00 19.4 9 Nordeste 16 Nordeste 0 -- -- 60
2018-09-28 22:00:00 20.5 14 Nordeste 23 Nordeste 0 -- -- 54
2018-09-28 21:00:00 20.8 11 Norte 17 Noroeste 0 -- -- 58
2018-09-28 20:00:00 23.7 7 Oeste 10 Sudoeste 0 -- -- 48
2018-09-28 19:00:00 25.6 5 Sudoeste 13 Sur 0 -- -- 39
2018-09-28 18:00:00 26.9 3 Sudoeste 13 Sudoeste 0 -- -- 34
2018-09-28 17:00:00 27.6 6 Sur 19 Sudeste 0 -- -- 33
2018-09-28 16:00:00 27.3 9 Sudoeste 14 Sur 0 -- -- 34
2018-09-28 15:00:00 26.8 6 Sudeste 14 Este 0 -- -- 35
2018-09-28 14:00:00 25.7 4 Sudeste 16 Este 0 -- -- 38
2018-09-28 13:00:00 24.7 5 Sudeste 13 Este 0 -- -- 42
2018-09-28 12:00:00 23.2 6 Este 17 Este 0 -- -- 48
2018-09-28 11:00:00 20.9 8 Este 14 Este 0 -- -- 59
2018-09-28 10:00:00 15.3 8 Noroeste 12 Noroeste 0 -- -- 82
2018-09-28 09:00:00 11.8 8 Noroeste 14 Norte 0 -- -- 92
2018-09-28 08:00:00 11.3 9 Noroeste 12 Noroeste 0 -- -- 91
2018-09-28 07:00:00 11.6 9 Noroeste 13 Noroeste 0 -- -- 91
2018-09-28 06:00:00 11.9 9 Norte 14 Noroeste 0 -- -- 90
2018-09-28 05:00:00 12.3 8 Norte 12 Noroeste 0 -- -- 89
2018-09-28 04:00:00 12.9 9 Norte 15 Noroeste 0 -- -- 88
2018-09-28 03:00:00 13.2 10 Noroeste 13 Noroeste 0 -- -- 87
2018-09-28 02:00:00 13.4 9 Norte 12 Noroeste 0 -- -- 86
2018-09-28 01:00:00 14.4 9 Noroeste 13 Noroeste 0 -- -- 80
2018-09-28 00:00:00 15.6 8 Norte 12 Nordeste 0 -- -- 74
2018-09-27 23:00:00 16.1 11 Norte 14 Norte 0 -- -- 71
2018-09-27 22:00:00 16.8 10 Noroeste 15 Noroeste 0 -- -- 67
2018-09-27 21:00:00 17.7 6 Oeste 11 Noroeste 0 -- -- 63
2018-09-27 20:00:00 20.4 8 Oeste 17 Noroeste 0 -- -- 52
2018-09-27 19:00:00 24.3 12 Noroeste 27 Noroeste 0 -- -- 40
2018-09-27 18:00:00 25.9 18 Noroeste 30 Noroeste 0 -- -- 38
2018-09-27 17:00:00 27.8 9 Sur 17 Sudoeste 0 -- -- 38
2018-09-27 16:00:00 26.9 6 Sudeste 15 Sudeste 0 -- -- 41
2018-09-27 15:00:00 26 5 Sudeste 14 Sudeste 0 -- -- 45
2018-09-27 14:00:00 24.8 4 Sur 10 Sudeste 0 -- -- 48
2018-09-27 13:00:00 23.1 4 Sur 8 Sudeste 0 -- -- 55
2018-09-27 12:00:00 21.4 3 Noroeste 9 Nordeste 0 -- -- 60
2018-09-27 11:00:00 19.2 5 Norte 10 Nordeste 0 -- -- 67
2018-09-27 10:00:00 15.7 4 Noroeste 7 Norte 0 -- -- 81
2018-09-27 09:00:00 13.1 7 Norte 10 Norte 0 -- -- 88
2018-09-27 08:00:00 12.9 4 Nordeste 10 Norte 0 -- -- 85
2018-09-27 07:00:00 13.3 6 Nordeste 12 Nordeste 0 -- -- 83
2018-09-27 06:00:00 14.1 5 Nordeste 13 Nordeste 0 -- -- 78
2018-09-27 05:00:00 14.7 9 Nordeste 14 Nordeste 0 -- -- 76
2018-09-27 04:00:00 12.2 7 Nordeste 10 Nordeste 0 -- -- 84
2018-09-27 03:00:00 12.3 5 Norte 10 Nordeste 0 -- -- 84
2018-09-27 02:00:00 12.3 6 Norte 10 Norte 0 -- -- 85
2018-09-27 01:00:00 13.3 5 Norte 13 Norte 0 -- -- 84
2018-09-27 00:00:00 13.9 8 Norte 10 Norte 0 -- -- 82
2018-09-26 23:00:00 15.7 8 Noroeste 10 Noroeste 0 -- -- 75
2018-09-26 22:00:00 18.3 8 Sudeste 11 Este 0 -- -- 63
2018-09-26 21:00:00 19.4 5 Este 7 Este 0 -- -- 59
2018-09-26 20:00:00 23.3 4 Sudeste 7 Sudeste 0 -- -- 49
2018-09-26 19:00:00 26 4 Sur 10 Sur 0 -- -- 34
2018-09-26 18:00:00 26.2 5 Sur 12 Sudoeste 0 -- -- 32
2018-09-26 17:00:00 26.2 5 Sudoeste 15 Sudeste 0 -- -- 33
2018-09-26 16:00:00 25.1 5 Sudeste 13 Este 0 -- -- 33
2018-09-26 15:00:00 23.9 4 Sudeste 18 Este 0 -- -- 29
2018-09-26 14:00:00 22.5 8 Sudeste 14 Este 0 -- -- 32
2018-09-26 13:00:00 20.7 6 Este 14 Nordeste 0 -- -- 42
2018-09-26 12:00:00 18.4 5 Nordeste 17 Este 0 -- -- 49
2018-09-26 11:00:00 16.6 7 Este 15 Este 0 -- -- 50
2018-09-26 10:00:00 11.1 5 Noroeste 13 Noroeste 0 -- -- 69
2018-09-26 09:00:00 6.3 8 Noroeste 13 Noroeste 0 -- -- 83
2018-09-26 08:00:00 5.4 9 Noroeste 14 Noroeste 0 -- -- 84
2018-09-26 07:00:00 5.3 9 Norte 14 Noroeste 0 -- -- 84
2018-09-26 06:00:00 5.7 9 Noroeste 12 Noroeste 0 -- -- 82
2018-09-26 05:00:00 6.2 9 Norte 13 Norte 0 -- -- 81
2018-09-26 04:00:00 6.7 9 Noroeste 15 Norte 0 -- -- 81
2018-09-26 03:00:00 6.9 9 Noroeste 13 Noroeste 0 -- -- 82
2018-09-26 02:00:00 7 9 Noroeste 11 Oeste 0 -- -- 81
2018-09-26 01:00:00 9 6 Norte 10 Nordeste 0 -- -- 73
2018-09-26 00:00:00 11.7 6 Nordeste 14 Nordeste 0 -- -- 56
2018-09-25 23:00:00 12.5 9 Nordeste 14 Este 0 -- -- 49
2018-09-25 22:00:00 14.4 10 Este 17 Este 0 -- -- 48
2018-09-25 21:00:00 16.7 0 Calma 3 Sur 0 -- -- 52
2018-09-25 20:00:00 21.9 3 Sur 10 Sudeste 0 -- -- 32
2018-09-25 19:00:00 22.9 5 Sudeste 13 Sudeste 0 -- -- 27
2018-09-25 18:00:00 23.1 8 Este 14 Sudeste 0 -- -- 26
2018-09-25 17:00:00 22.3 8 Este 15 Sudeste 0 -- -- 24
2018-09-25 16:00:00 21.7 8 Este 16 Sudeste 0 -- -- 25
2018-09-25 15:00:00 20.5 4 Sudeste 15 Sudeste 0 -- -- 27
2018-09-25 14:00:00 19.4 5 Este 14 Este 0 -- -- 29
2018-09-25 13:00:00 17.5 2 Sudeste 10 Sur 0 -- -- 33
2018-09-25 12:00:00 14.6 4 Noroeste 10 Noroeste 0 -- -- 45
2018-09-25 11:00:00 11.8 4 Noroeste 10 Sudoeste 0 -- -- 51
2018-09-25 10:00:00 9.5 5 Oeste 9 Oeste 0 -- -- 65
2018-09-25 09:00:00 6.6 0 Calma 4 Sur 0 -- -- 82
2018-09-25 08:00:00 6 3 Sudoeste 8 Sur 0 -- -- 82
2018-09-25 07:00:00 6.3 3 Nordeste 7 Noroeste 0 -- -- 87
2018-09-25 06:00:00 6.9 6 Norte 8 Norte 0 -- -- 87
2018-09-25 05:00:00 7.4 5 Norte 6 Norte 0 -- -- 87
2018-09-25 04:00:00 8.1 4 Oeste 8 Sur 0 -- -- 82
2018-09-25 03:00:00 8.3 6 Sur 9 Sur 0 -- -- 80
2018-09-25 02:00:00 9.6 6 Sur 8 Sur 0 -- -- 76
2018-09-25 01:00:00 10.4 5 Sur 9 Sur 0 -- -- 76
2018-09-25 00:00:00 11.2 4 Sur 8 Este 0 -- -- 74
2018-09-24 23:00:00 13.4 5 Sudeste 19 Este 0 -- -- 66
2018-09-24 22:00:00 15.4 12 Este 23 Este 0 -- -- 64
2018-09-24 21:00:00 17.6 19 Este 30 Este 0 -- -- 52
2018-09-24 20:00:00 21.9 8 Sudeste 15 Sudeste 0 -- -- 53
2018-09-24 19:00:00 24 9 Sudeste 14 Sur 0 -- -- 45
2018-09-24 18:00:00 24.5 5 Sudeste 18 Sur 0 -- -- 44
2018-09-24 17:00:00 24.7 8 Sur 19 Sudeste 0 -- -- 44
2018-09-24 16:00:00 23.9 4 Sur 18 Sudeste 0 -- -- 46
2018-09-24 15:00:00 23.3 6 Sur 22 Este 0 -- -- 51
2018-09-24 14:00:00 22.4 8 Sur 19 Este 0 -- -- 53
2018-09-24 13:00:00 21 7 Este 24 Este 0 -- -- 58
2018-09-24 12:00:00 19.7 10 Este 19 Este 0 -- -- 65
2018-09-24 11:00:00 18 6 Este 12 Este 0 -- -- 73
2018-09-24 10:00:00 15.5 3 Nordeste 6 Nordeste 0 -- -- 83
2018-09-24 09:00:00 11.5 4 Este 10 Sudeste 0 -- -- 93
2018-09-24 08:00:00 11 6 Norte 9 Noroeste 0 -- -- 92
2018-09-24 07:00:00 11.3 5 Norte 6 Noroeste 0 -- -- 91
2018-09-24 06:00:00 11.8 3 Sur 8 Nordeste 0 -- -- 88
2018-09-24 05:00:00 13.2 4 Este 14 Nordeste 0 -- -- 86
2018-09-24 04:00:00 15 10 Nordeste 14 Nordeste 0 -- -- 81
2018-09-24 03:00:00 14.7 7 Nordeste 14 Nordeste 0 -- -- 83
2018-09-24 02:00:00 15.5 11 Nordeste 15 Este 0 -- -- 81
2018-09-24 01:00:00 15.7 8 Nordeste 13 Norte 0 -- -- 81
2018-09-24 00:00:00 16.4 6 Norte 9 Norte 0 -- -- 80
2018-09-23 23:00:00 17.8 4 Nordeste 12 Noroeste 0 -- -- 76
2018-09-23 22:00:00 19.2 6 Noroeste 13 Norte 0 -- -- 71
2018-09-23 21:00:00 21.7 8 Norte 18 Norte 0 -- -- 64
2018-09-23 20:00:00 26.3 13 Norte 24 Norte 0 -- -- 49
2018-09-23 19:00:00 28.9 15 Oeste 26 Oeste 0 -- -- 37
2018-09-23 18:00:00 30.2 10 Noroeste 21 Oeste 0 -- -- 32
2018-09-23 17:00:00 30.6 12 Oeste 23 Oeste 0 -- -- 24
2018-09-23 16:00:00 29.2 5 Sudeste 17 Sudoeste 0 -- -- 39
2018-09-23 15:00:00 28.4 7 Sur 16 Sudoeste 0 -- -- 40
2018-09-23 14:00:00 27.1 7 Sur 15 Sur 0 -- -- 43
2018-09-23 13:00:00 25.6 5 Sudeste 9 Sudeste 0 -- -- 48
2018-09-23 12:00:00 24.1 3 Nordeste 6 Noroeste 0 -- -- 54
2018-09-23 11:00:00 20.9 3 Noroeste 10 Noroeste 0 -- -- 66
2018-09-23 10:00:00 16.6 6 Noroeste 13 Noroeste 0 -- -- 86
2018-09-23 09:00:00 13 7 Norte 15 Noroeste 0 -- -- 94
2018-09-23 08:00:00 12.3 9 Noroeste 13 Noroeste 0 -- -- 93
2018-09-23 07:00:00 12.6 9 Noroeste 12 Noroeste 0 -- -- 92
2018-09-23 06:00:00 13 6 Norte 10 Norte 0 -- -- 92
2018-09-23 05:00:00 13.7 8 Norte 12 Norte 0 -- -- 90
2018-09-23 04:00:00 14.6 8 Norte 13 Norte 0 -- -- 87
2018-09-23 03:00:00 14.7 8 Norte 14 Noroeste 0 -- -- 86
2018-09-23 02:00:00 14.9 9 Norte 14 Norte 0 -- -- 83
2018-09-23 01:00:00 15.9 9 Norte 21 Noroeste 0 -- -- 79
2018-09-23 00:00:00 16.5 14 Norte 19 Noroeste 0 -- -- 74
2018-09-22 23:00:00 17.5 13 Noroeste 14 Noroeste 0 -- -- 73
2018-09-22 22:00:00 19.6 0 Calma 7 Oeste 0 -- -- 66
2018-09-22 21:00:00 20.8 6 Noroeste 9 Oeste 0 -- -- 66
2018-09-22 20:00:00 26.1 6 Sudeste 10 Sudeste 0 -- -- 45
2018-09-22 19:00:00 28 7 Sudeste 11 Sudeste 0 -- -- 38
2018-09-22 18:00:00 28.6 8 Sur 16 Sur 0 -- -- 35
2018-09-22 17:00:00 28.5 6 Sur 14 Sudoeste 0 -- -- 37
2018-09-22 16:00:00 27.5 6 Sudoeste 13 Oeste 0 -- -- 41
2018-09-22 15:00:00 26.1 4 Sudoeste 17 Sudoeste 0 -- -- 46
2018-09-22 14:00:00 24.7 6 Sur 15 Sudoeste 0 -- -- 50
2018-09-22 13:00:00 23.1 8 Sur 15 Sur 0 -- -- 54
2018-09-22 12:00:00 20.8 5 Sudoeste 12 Sudoeste 0 -- -- 62
2018-09-22 11:00:00 18.6 3 Noroeste 9 Norte 0 -- -- 70
2018-09-22 10:00:00 14.8 8 Noroeste 11 Norte 0 -- -- 87
2018-09-22 09:00:00 11.3 6 Norte 11 Noroeste 0 -- -- 95
2018-09-22 08:00:00 10.9 5 Norte 13 Norte 0 -- -- 93
2018-09-22 07:00:00 11.2 7 Noroeste 10 Noroeste 0 -- -- 93
2018-09-22 06:00:00 11.6 7 Noroeste 12 Noroeste 0 -- -- 92
2018-09-22 05:00:00 12 9 Noroeste 12 Noroeste 0 -- -- 92
2018-09-22 04:00:00 12.5 5 Noroeste 9 Norte 0 -- -- 89
2018-09-22 03:00:00 13.8 5 Nordeste 7 Nordeste 0 -- -- 84
2018-09-22 02:00:00 14.1 5 Nordeste 12 Este 0 -- -- 84
2018-09-22 01:00:00 15 7 Nordeste 12 Nordeste 0 -- -- 84
2018-09-22 00:00:00 15.4 6 Nordeste 11 Noroeste 0 -- -- 84
2018-09-21 23:00:00 16.6 10 Noroeste 14 Noroeste 0 -- -- 80
2018-09-21 22:00:00 17.4 11 Noroeste 13 Noroeste 0 -- -- 77
2018-09-21 21:00:00 19.1 7 Oeste 13 Oeste 0 -- -- 71
2018-09-21 20:00:00 21.9 6 Noroeste 17 Noroeste 0 -- -- 60
2018-09-21 19:00:00 23.8 12 Noroeste 18 Noroeste 0 -- -- 51
2018-09-21 18:00:00 24.8 8 Noroeste 18 Sudoeste 0 -- -- 48
2018-09-21 17:00:00 25.6 4 Noroeste 10 Noroeste 0 -- -- 37
2018-09-21 16:00:00 24.5 5 Sudeste 12 Este 0 -- -- 36
2018-09-21 15:00:00 24.1 4 Sudoeste 10 Sur 0 -- -- 35
2018-09-21 14:00:00 21.5 4 Oeste 18 Oeste 0 -- -- 44
2018-09-21 13:00:00 19.9 13 Noroeste 28 Oeste 0 -- -- 54
2018-09-21 12:00:00 18.6 14 Noroeste 30 Oeste 0 -- -- 61
2018-09-21 11:00:00 16.4 15 Oeste 25 Oeste 0 -- -- 72
2018-09-21 10:00:00 14.9 17 Oeste 27 Noroeste 0 -- -- 79
2018-09-21 09:00:00 12.5 11 Noroeste 26 Oeste 0 -- -- 87
2018-09-21 08:00:00 12.7 7 Oeste 25 Noroeste 0 -- -- 82
2018-09-21 07:00:00 11.9 8 Noroeste 15 Noroeste 0 -- -- 84
2018-09-21 06:00:00 12.6 7 Noroeste 21 Noroeste 0 -- -- 79
2018-09-21 05:00:00 12.1 8 Norte 17 Noroeste 0 -- -- 81
2018-09-21 04:00:00 12.2 5 Noroeste 14 Noroeste 0 -- -- 81
2018-09-21 03:00:00 13.1 12 Noroeste 21 Noroeste 0 -- -- 78
2018-09-21 02:00:00 14.9 16 Noroeste 22 Noroeste 0 -- -- 69
2018-09-21 01:00:00 14.8 10 Noroeste 21 Noroeste 0 -- -- 67
2018-09-21 00:00:00 17.4 14 Oeste 25 Noroeste 0 -- -- 53
2018-09-20 23:00:00 17.2 10 Oeste 16 Oeste 0 -- -- 57
2018-09-20 22:00:00 18.2 11 Oeste 15 Oeste 0 -- -- 54
2018-09-20 21:00:00 20.4 12 Oeste 17 Oeste 0 -- -- 49
2018-09-20 20:00:00 24.2 7 Oeste 16 Oeste 0 -- -- 41
2018-09-20 19:00:00 26.2 10 Oeste 31 Sudoeste 0 -- -- 35
2018-09-20 18:00:00 28.4 21 Sudoeste 35 Sudoeste 0 -- -- 28
2018-09-20 17:00:00 29.1 24 Sudoeste 40 Sudoeste 0 -- -- 27
2018-09-20 16:00:00 28.4 14 Sur 24 Sur 0 -- -- 35
2018-09-20 15:00:00 27 15 Sur 30 Sur 0 -- -- 37
2018-09-20 14:00:00 25.7 13 Sur 23 Sur 0 -- -- 41
2018-09-20 13:00:00 23.7 6 Sur 12 Sudoeste 0 -- -- 49
2018-09-20 12:00:00 21.5 4 Sudeste 9 Sudeste 0 -- -- 58
2018-09-20 11:00:00 19.1 3 Sudeste 6 Sudeste 0 -- -- 67
2018-09-20 10:00:00 14.7 4 Noroeste 9 Norte 0 -- -- 83
2018-09-20 09:00:00 10.2 7 Noroeste 11 Norte 0 -- -- 92
2018-09-20 08:00:00 9.3 8 Norte 12 Noroeste 0 -- -- 91
2018-09-20 07:00:00 9.8 9 Noroeste 12 Norte 0 -- -- 90
2018-09-20 06:00:00 10.5 8 Noroeste 13 Norte 0 -- -- 87
2018-09-20 05:00:00 11.4 9 Norte 10 Norte 0 -- -- 84
2018-09-20 04:00:00 12.5 6 Nordeste 16 Norte 0 -- -- 78
2018-09-20 03:00:00 13.2 10 Noroeste 18 Norte 0 -- -- 77
2018-09-20 02:00:00 14 12 Noroeste 17 Noroeste 0 -- -- 74
2018-09-20 01:00:00 14.6 10 Noroeste 14 Noroeste 0 -- -- 74
2018-09-20 00:00:00 15.6 12 Noroeste 15 Noroeste 0 -- -- 67